sensor_id;sensor_type;location;lat;lon;timestamp;temperature;humidity
55492;DHT22;41354;52.990;6.878;2022-08-21T00:01:43;15.30;99.90
55492;DHT22;41354;52.990;6.878;2022-08-21T00:04:09;15.20;99.90
55492;DHT22;41354;52.990;6.878;2022-08-21T00:06:35;15.20;99.90
55492;DHT22;41354;52.990;6.878;2022-08-21T00:09:03;15.10;99.90
55492;DHT22;41354;52.990;6.878;2022-08-21T00:11:29;15.00;99.90
55492;DHT22;41354;52.990;6.878;2022-08-21T00:13:55;14.90;99.90
55492;DHT22;41354;52.990;6.878;2022-08-21T00:16:21;14.90;99.90
55492;DHT22;41354;52.990;6.878;2022-08-21T00:18:49;14.70;99.90
55492;DHT22;41354;52.990;6.878;2022-08-21T00:21:15;14.70;99.90
55492;DHT22;41354;52.990;6.878;2022-08-21T00:23:41;14.60;99.90
55492;DHT22;41354;52.990;6.878;2022-08-21T00:26:07;14.60;99.90
55492;DHT22;41354;52.990;6.878;2022-08-21T00:28:33;14.60;99.90
55492;DHT22;41354;52.990;6.878;2022-08-21T00:30:59;14.60;99.90
55492;DHT22;41354;52.990;6.878;2022-08-21T00:33:25;14.60;99.90
55492;DHT22;41354;52.990;6.878;2022-08-21T00:35:52;14.60;99.90
55492;DHT22;41354;52.990;6.878;2022-08-21T00:38:18;14.50;99.90
55492;DHT22;41354;52.990;6.878;2022-08-21T00:40:54;14.50;99.90
55492;DHT22;41354;52.990;6.878;2022-08-21T00:43:28;14.50;99.90
55492;DHT22;41354;52.990;6.878;2022-08-21T00:45:54;14.40;99.90
55492;DHT22;41354;52.990;6.878;2022-08-21T00:48:21;14.40;99.90
55492;DHT22;41354;52.990;6.878;2022-08-21T00:50:52;14.40;99.90
55492;DHT22;41354;52.990;6.878;2022-08-21T00:53:19;14.40;99.90
55492;DHT22;41354;52.990;6.878;2022-08-21T00:55:45;14.40;99.90
55492;DHT22;41354;52.990;6.878;2022-08-21T00:58:13;14.30;99.90
55492;DHT22;41354;52.990;6.878;2022-08-21T01:00:41;14.30;99.90
55492;DHT22;41354;52.990;6.878;2022-08-21T01:03:14;14.20;99.90
55492;DHT22;41354;52.990;6.878;2022-08-21T01:05:41;14.20;99.90
55492;DHT22;41354;52.990;6.878;2022-08-21T01:08:08;14.20;99.90
55492;DHT22;41354;52.990;6.878;2022-08-21T01:10:34;14.20;99.90
55492;DHT22;41354;52.990;6.878;2022-08-21T01:13:02;14.20;99.90
55492;DHT22;41354;52.990;6.878;2022-08-21T01:15:32;14.30;99.90
55492;DHT22;41354;52.990;6.878;2022-08-21T01:17:58;14.30;99.90
55492;DHT22;41354;52.990;6.878;2022-08-21T01:20:25;14.40;99.90
55492;DHT22;41354;52.990;6.878;2022-08-21T01:22:51;14.40;99.90
55492;DHT22;41354;52.990;6.878;2022-08-21T01:25:17;14.50;99.90
55492;DHT22;41354;52.990;6.878;2022-08-21T01:27:45;14.60;99.90
55492;DHT22;41354;52.990;6.878;2022-08-21T01:30:12;14.60;99.90
55492;DHT22;41354;52.990;6.878;2022-08-21T01:32:39;14.70;99.90
55492;DHT22;41354;52.990;6.878;2022-08-21T01:35:06;14.80;99.90
55492;DHT22;41354;52.990;6.878;2022-08-21T01:37:32;14.80;99.90
55492;DHT22;41354;52.990;6.878;2022-08-21T01:39:57;14.80;99.90
55492;DHT22;41354;52.990;6.878;2022-08-21T01:42:23;14.80;99.90
55492;DHT22;41354;52.990;6.878;2022-08-21T01:44:49;14.80;99.90
55492;DHT22;41354;52.990;6.878;2022-08-21T01:47:15;14.80;99.90
55492;DHT22;41354;52.990;6.878;2022-08-21T01:49:42;14.80;99.90
55492;DHT22;41354;52.990;6.878;2022-08-21T01:52:08;14.80;99.90
55492;DHT22;41354;52.990;6.878;2022-08-21T01:54:34;14.80;99.90
55492;DHT22;41354;52.990;6.878;2022-08-21T01:57:00;14.80;99.90
55492;DHT22;41354;52.990;6.878;2022-08-21T01:59:26;14.70;99.90
55492;DHT22;41354;52.990;6.878;2022-08-21T02:01:53;14.70;99.90
55492;DHT22;41354;52.990;6.878;2022-08-21T02:04:21;14.70;99.90
55492;DHT22;41354;52.990;6.878;2022-08-21T02:06:48;14.60;99.90
55492;DHT22;41354;52.990;6.878;2022-08-21T02:09:14;14.60;99.90
55492;DHT22;41354;52.990;6.878;2022-08-21T02:11:41;14.60;99.90
55492;DHT22;41354;52.990;6.878;2022-08-21T02:14:08;14.50;99.90
55492;DHT22;41354;52.990;6.878;2022-08-21T02:16:35;14.40;99.90
55492;DHT22;41354;52.990;6.878;2022-08-21T02:19:01;14.40;99.90
55492;DHT22;41354;52.990;6.878;2022-08-21T02:21:26;14.40;99.90
55492;DHT22;41354;52.990;6.878;2022-08-21T02:23:52;14.40;99.90
55492;DHT22;41354;52.990;6.878;2022-08-21T02:26:17;14.30;99.90
55492;DHT22;41354;52.990;6.878;2022-08-21T02:28:43;14.20;99.90
55492;DHT22;41354;52.990;6.878;2022-08-21T02:31:09;14.30;99.90
55492;DHT22;41354;52.990;6.878;2022-08-21T02:33:35;14.30;99.90
55492;DHT22;41354;52.990;6.878;2022-08-21T02:36:02;14.20;99.90
55492;DHT22;41354;52.990;6.878;2022-08-21T02:38:30;14.20;99.90
55492;DHT22;41354;52.990;6.878;2022-08-21T02:40:56;14.10;99.90
55492;DHT22;41354;52.990;6.878;2022-08-21T02:43:24;14.10;99.90
55492;DHT22;41354;52.990;6.878;2022-08-21T02:45:51;14.10;99.90
55492;DHT22;41354;52.990;6.878;2022-08-21T02:48:21;14.10;99.90
55492;DHT22;41354;52.990;6.878;2022-08-21T02:50:52;14.10;99.90
55492;DHT22;41354;52.990;6.878;2022-08-21T02:53:19;14.00;99.90
55492;DHT22;41354;52.990;6.878;2022-08-21T02:55:47;14.00;99.90
55492;DHT22;41354;52.990;6.878;2022-08-21T02:58:16;14.00;99.90
55492;DHT22;41354;52.990;6.878;2022-08-21T03:00:42;14.00;99.90
55492;DHT22;41354;52.990;6.878;2022-08-21T03:03:09;14.00;99.90
55492;DHT22;41354;52.990;6.878;2022-08-21T03:05:36;14.00;99.90
55492;DHT22;41354;52.990;6.878;2022-08-21T03:08:04;14.00;99.90
55492;DHT22;41354;52.990;6.878;2022-08-21T03:10:30;14.00;99.90
55492;DHT22;41354;52.990;6.878;2022-08-21T03:12:56;14.00;99.90
55492;DHT22;41354;52.990;6.878;2022-08-21T03:15:23;13.90;99.90
55492;DHT22;41354;52.990;6.878;2022-08-21T03:17:50;13.90;99.90
55492;DHT22;41354;52.990;6.878;2022-08-21T03:20:18;13.80;99.90
55492;DHT22;41354;52.990;6.878;2022-08-21T03:22:44;13.80;99.90
55492;DHT22;41354;52.990;6.878;2022-08-21T03:25:10;13.80;99.90
55492;DHT22;41354;52.990;6.878;2022-08-21T03:27:36;13.80;99.90
55492;DHT22;41354;52.990;6.878;2022-08-21T03:30:05;13.70;99.90
55492;DHT22;41354;52.990;6.878;2022-08-21T03:32:31;13.70;99.90
55492;DHT22;41354;52.990;6.878;2022-08-21T03:34:57;13.70;99.90
55492;DHT22;41354;52.990;6.878;2022-08-21T03:37:23;13.70;99.90
55492;DHT22;41354;52.990;6.878;2022-08-21T03:39:50;13.70;99.90
55492;DHT22;41354;52.990;6.878;2022-08-21T03:42:16;13.70;99.90
55492;DHT22;41354;52.990;6.878;2022-08-21T03:44:41;13.70;99.90
55492;DHT22;41354;52.990;6.878;2022-08-21T03:47:07;13.70;99.90
55492;DHT22;41354;52.990;6.878;2022-08-21T03:49:33;13.70;99.90
55492;DHT22;41354;52.990;6.878;2022-08-21T03:51:59;13.60;99.90
55492;DHT22;41354;52.990;6.878;2022-08-21T03:54:25;13.60;99.90
55492;DHT22;41354;52.990;6.878;2022-08-21T03:56:50;13.60;99.90
55492;DHT22;41354;52.990;6.878;2022-08-21T03:59:17;13.50;99.90
55492;DHT22;41354;52.990;6.878;2022-08-21T04:02:00;13.60;99.90
55492;DHT22;41354;52.990;6.878;2022-08-21T04:04:27;13.50;99.90
55492;DHT22;41354;52.990;6.878;2022-08-21T04:06:52;13.50;99.90
55492;DHT22;41354;52.990;6.878;2022-08-21T04:09:19;13.40;99.90
55492;DHT22;41354;52.990;6.878;2022-08-21T04:11:45;13.40;99.90
55492;DHT22;41354;52.990;6.878;2022-08-21T04:14:12;13.40;99.90
55492;DHT22;41354;52.990;6.878;2022-08-21T04:16:39;13.40;99.90
55492;DHT22;41354;52.990;6.878;2022-08-21T04:19:05;13.40;99.90
55492;DHT22;41354;52.990;6.878;2022-08-21T04:21:31;13.40;99.90
55492;DHT22;41354;52.990;6.878;2022-08-21T04:23:57;13.40;99.90
55492;DHT22;41354;52.990;6.878;2022-08-21T04:26:24;13.40;99.90
55492;DHT22;41354;52.990;6.878;2022-08-21T04:28:51;13.30;99.90
55492;DHT22;41354;52.990;6.878;2022-08-21T04:31:17;13.30;99.90
55492;DHT22;41354;52.990;6.878;2022-08-21T04:33:43;13.30;99.90
55492;DHT22;41354;52.990;6.878;2022-08-21T04:36:09;13.30;99.90
55492;DHT22;41354;52.990;6.878;2022-08-21T04:38:34;13.30;99.90
55492;DHT22;41354;52.990;6.878;2022-08-21T04:41:00;13.20;99.90
55492;DHT22;41354;52.990;6.878;2022-08-21T04:43:25;13.20;99.90
55492;DHT22;41354;52.990;6.878;2022-08-21T04:45:52;13.20;99.90
55492;DHT22;41354;52.990;6.878;2022-08-21T04:48:20;13.20;99.90
55492;DHT22;41354;52.990;6.878;2022-08-21T04:53:49;13.20;99.90
55492;DHT22;41354;52.990;6.878;2022-08-21T04:58:48;13.20;99.90
55492;DHT22;41354;52.990;6.878;2022-08-21T05:01:19;13.20;99.90
55492;DHT22;41354;52.990;6.878;2022-08-21T05:03:47;13.20;99.90
55492;DHT22;41354;52.990;6.878;2022-08-21T05:06:15;13.30;99.90
55492;DHT22;41354;52.990;6.878;2022-08-21T05:08:41;13.30;99.90
55492;DHT22;41354;52.990;6.878;2022-08-21T05:11:09;13.40;99.90
55492;DHT22;41354;52.990;6.878;2022-08-21T05:13:35;13.40;99.90
55492;DHT22;41354;52.990;6.878;2022-08-21T05:16:01;13.40;99.90
55492;DHT22;41354;52.990;6.878;2022-08-21T05:18:26;13.40;99.90
55492;DHT22;41354;52.990;6.878;2022-08-21T05:20:52;13.50;99.90
55492;DHT22;41354;52.990;6.878;2022-08-21T05:23:18;13.50;99.90
55492;DHT22;41354;52.990;6.878;2022-08-21T05:25:43;13.50;99.90
55492;DHT22;41354;52.990;6.878;2022-08-21T05:28:09;13.60;99.90
55492;DHT22;41354;52.990;6.878;2022-08-21T05:30:36;13.60;99.90
55492;DHT22;41354;52.990;6.878;2022-08-21T05:33:03;13.70;99.90
55492;DHT22;41354;52.990;6.878;2022-08-21T05:35:30;13.70;99.90
55492;DHT22;41354;52.990;6.878;2022-08-21T05:37:56;13.80;99.90
55492;DHT22;41354;52.990;6.878;2022-08-21T05:40:22;13.80;99.90
55492;DHT22;41354;52.990;6.878;2022-08-21T05:42:49;13.90;99.90
55492;DHT22;41354;52.990;6.878;2022-08-21T05:45:15;14.00;99.90
55492;DHT22;41354;52.990;6.878;2022-08-21T05:47:40;14.10;99.90
55492;DHT22;41354;52.990;6.878;2022-08-21T05:50:06;14.10;99.90
55492;DHT22;41354;52.990;6.878;2022-08-21T05:52:32;14.20;99.90
55492;DHT22;41354;52.990;6.878;2022-08-21T05:54:57;14.30;99.90
55492;DHT22;41354;52.990;6.878;2022-08-21T05:57:23;14.40;99.90
55492;DHT22;41354;52.990;6.878;2022-08-21T05:59:49;14.50;99.90
55492;DHT22;41354;52.990;6.878;2022-08-21T06:02:17;14.60;99.90
55492;DHT22;41354;52.990;6.878;2022-08-21T06:04:43;14.70;99.90
55492;DHT22;41354;52.990;6.878;2022-08-21T06:07:09;14.80;99.90
55492;DHT22;41354;52.990;6.878;2022-08-21T06:09:35;14.90;99.90
55492;DHT22;41354;52.990;6.878;2022-08-21T06:12:05;15.00;99.90
55492;DHT22;41354;52.990;6.878;2022-08-21T06:14:31;15.10;99.90
55492;DHT22;41354;52.990;6.878;2022-08-21T06:17:08;15.20;99.90
55492;DHT22;41354;52.990;6.878;2022-08-21T06:19:35;15.30;99.90
55492;DHT22;41354;52.990;6.878;2022-08-21T06:22:01;15.40;99.90
55492;DHT22;41354;52.990;6.878;2022-08-21T06:24:27;15.50;99.90
55492;DHT22;41354;52.990;6.878;2022-08-21T06:26:53;15.60;99.90
55492;DHT22;41354;52.990;6.878;2022-08-21T06:29:19;15.70;99.90
55492;DHT22;41354;52.990;6.878;2022-08-21T06:31:47;15.80;99.90
55492;DHT22;41354;52.990;6.878;2022-08-21T06:34:13;15.90;99.90
55492;DHT22;41354;52.990;6.878;2022-08-21T06:36:39;16.00;99.90
55492;DHT22;41354;52.990;6.878;2022-08-21T06:39:04;16.10;99.90
55492;DHT22;41354;52.990;6.878;2022-08-21T06:41:30;16.20;99.90
55492;DHT22;41354;52.990;6.878;2022-08-21T06:43:56;16.30;99.90
55492;DHT22;41354;52.990;6.878;2022-08-21T06:46:24;16.40;99.90
55492;DHT22;41354;52.990;6.878;2022-08-21T06:48:50;16.60;99.90
55492;DHT22;41354;52.990;6.878;2022-08-21T06:51:16;16.70;99.90
55492;DHT22;41354;52.990;6.878;2022-08-21T06:53:41;16.80;99.90
55492;DHT22;41354;52.990;6.878;2022-08-21T06:56:07;16.90;99.90
55492;DHT22;41354;52.990;6.878;2022-08-21T06:58:33;17.00;99.90
55492;DHT22;41354;52.990;6.878;2022-08-21T07:00:59;17.10;99.90
55492;DHT22;41354;52.990;6.878;2022-08-21T07:03:35;17.20;99.90
55492;DHT22;41354;52.990;6.878;2022-08-21T07:06:02;17.40;99.90
55492;DHT22;41354;52.990;6.878;2022-08-21T07:08:28;17.50;99.90
55492;DHT22;41354;52.990;6.878;2022-08-21T07:10:56;17.60;99.90
55492;DHT22;41354;52.990;6.878;2022-08-21T07:13:22;17.90;99.90
55492;DHT22;41354;52.990;6.878;2022-08-21T07:15:48;18.20;99.90
55492;DHT22;41354;52.990;6.878;2022-08-21T07:18:14;18.40;99.90
55492;DHT22;41354;52.990;6.878;2022-08-21T07:20:40;18.70;99.90
55492;DHT22;41354;52.990;6.878;2022-08-21T07:23:10;18.90;99.90
55492;DHT22;41354;52.990;6.878;2022-08-21T07:25:36;19.10;99.90
55492;DHT22;41354;52.990;6.878;2022-08-21T07:28:02;19.30;99.90
55492;DHT22;41354;52.990;6.878;2022-08-21T07:30:28;19.40;99.90
55492;DHT22;41354;52.990;6.878;2022-08-21T07:32:54;19.60;99.90
55492;DHT22;41354;52.990;6.878;2022-08-21T07:35:21;19.80;99.90
55492;DHT22;41354;52.990;6.878;2022-08-21T07:37:46;20.00;99.90
55492;DHT22;41354;52.990;6.878;2022-08-21T07:40:13;20.20;99.90
55492;DHT22;41354;52.990;6.878;2022-08-21T07:42:43;20.40;99.90
55492;DHT22;41354;52.990;6.878;2022-08-21T07:45:09;20.50;99.90
55492;DHT22;41354;52.990;6.878;2022-08-21T07:47:35;20.60;99.90
55492;DHT22;41354;52.990;6.878;2022-08-21T07:50:01;20.70;99.90
55492;DHT22;41354;52.990;6.878;2022-08-21T07:52:26;20.80;99.90
55492;DHT22;41354;52.990;6.878;2022-08-21T07:54:53;20.70;99.90
55492;DHT22;41354;52.990;6.878;2022-08-21T07:57:18;20.80;99.90
55492;DHT22;41354;52.990;6.878;2022-08-21T07:59:44;20.90;99.90
55492;DHT22;41354;52.990;6.878;2022-08-21T08:02:09;21.10;99.90
55492;DHT22;41354;52.990;6.878;2022-08-21T08:04:35;21.30;99.90
55492;DHT22;41354;52.990;6.878;2022-08-21T08:07:01;21.30;99.90
55492;DHT22;41354;52.990;6.878;2022-08-21T08:09:26;21.40;99.90
55492;DHT22;41354;52.990;6.878;2022-08-21T08:11:52;21.50;99.90
55492;DHT22;41354;52.990;6.878;2022-08-21T08:14:18;21.70;99.90
55492;DHT22;41354;52.990;6.878;2022-08-21T08:16:43;21.80;99.90
55492;DHT22;41354;52.990;6.878;2022-08-21T08:19:09;22.00;99.90
55492;DHT22;41354;52.990;6.878;2022-08-21T08:21:35;22.00;99.90
55492;DHT22;41354;52.990;6.878;2022-08-21T08:24:03;22.00;99.90
55492;DHT22;41354;52.990;6.878;2022-08-21T08:26:28;22.00;99.90
55492;DHT22;41354;52.990;6.878;2022-08-21T08:28:54;22.10;99.90
55492;DHT22;41354;52.990;6.878;2022-08-21T08:31:19;22.20;99.90
55492;DHT22;41354;52.990;6.878;2022-08-21T08:33:45;22.40;99.90
55492;DHT22;41354;52.990;6.878;2022-08-21T08:36:15;22.50;99.90
55492;DHT22;41354;52.990;6.878;2022-08-21T08:38:42;22.60;99.90
55492;DHT22;41354;52.990;6.878;2022-08-21T08:41:15;22.60;99.90
55492;DHT22;41354;52.990;6.878;2022-08-21T08:43:49;22.70;99.90
55492;DHT22;41354;52.990;6.878;2022-08-21T08:46:18;22.90;99.90
55492;DHT22;41354;52.990;6.878;2022-08-21T08:48:52;23.20;99.90
55492;DHT22;41354;52.990;6.878;2022-08-21T08:51:25;23.20;99.90
55492;DHT22;41354;52.990;6.878;2022-08-21T08:53:59;23.30;99.90
55492;DHT22;41354;52.990;6.878;2022-08-21T08:56:30;23.30;99.90
55492;DHT22;41354;52.990;6.878;2022-08-21T08:59:20;23.10;99.90
55492;DHT22;41354;52.990;6.878;2022-08-21T09:01:45;23.00;99.90
55492;DHT22;41354;52.990;6.878;2022-08-21T09:04:11;23.10;99.90
55492;DHT22;41354;52.990;6.878;2022-08-21T09:07:12;23.10;99.90
55492;DHT22;41354;52.990;6.878;2022-08-21T09:13:07;22.90;99.90
55492;DHT22;41354;52.990;6.878;2022-08-21T09:15:54;23.00;99.90
55492;DHT22;41354;52.990;6.878;2022-08-21T09:21:25;23.50;99.90
55492;DHT22;41354;52.990;6.878;2022-08-21T09:27:12;23.50;99.90
55492;DHT22;41354;52.990;6.878;2022-08-21T09:29:48;23.50;99.90
55492;DHT22;41354;52.990;6.878;2022-08-21T09:32:19;23.70;99.90
55492;DHT22;41354;52.990;6.878;2022-08-21T09:35:05;23.80;99.90
55492;DHT22;41354;52.990;6.878;2022-08-21T09:37:34;24.00;99.90
55492;DHT22;41354;52.990;6.878;2022-08-21T09:40:01;24.10;99.90
55492;DHT22;41354;52.990;6.878;2022-08-21T09:42:30;24.30;99.90
55492;DHT22;41354;52.990;6.878;2022-08-21T09:45:15;24.60;99.90
55492;DHT22;41354;52.990;6.878;2022-08-21T09:47:42;25.00;99.90
55492;DHT22;41354;52.990;6.878;2022-08-21T09:50:16;25.10;99.90
55492;DHT22;41354;52.990;6.878;2022-08-21T09:52:45;25.00;99.90
55492;DHT22;41354;52.990;6.878;2022-08-21T09:55:18;24.60;99.90
55492;DHT22;41354;52.990;6.878;2022-08-21T09:58:04;24.50;99.90
55492;DHT22;41354;52.990;6.878;2022-08-21T10:00:34;24.60;99.90
55492;DHT22;41354;52.990;6.878;2022-08-21T10:03:16;24.90;99.90
55492;DHT22;41354;52.990;6.878;2022-08-21T10:08:24;25.60;99.90
55492;DHT22;41354;52.990;6.878;2022-08-21T10:10:53;26.00;99.90
55492;DHT22;41354;52.990;6.878;2022-08-21T10:22:17;26.70;93.20
55492;DHT22;41354;52.990;6.878;2022-08-21T10:30:14;27.40;90.80
55492;DHT22;41354;52.990;6.878;2022-08-21T10:32:50;27.30;91.00
55492;DHT22;41354;52.990;6.878;2022-08-21T10:35:26;27.20;85.60
55492;DHT22;41354;52.990;6.878;2022-08-21T10:43:31;27.90;84.10
55492;DHT22;41354;52.990;6.878;2022-08-21T10:46:03;28.20;82.90
55492;DHT22;41354;52.990;6.878;2022-08-21T10:49:02;28.40;79.90
55492;DHT22;41354;52.990;6.878;2022-08-21T10:52:28;28.50;77.70
55492;DHT22;41354;52.990;6.878;2022-08-21T11:00:17;29.30;71.90
55492;DHT22;41354;52.990;6.878;2022-08-21T11:03:01;29.60;71.40
55492;DHT22;41354;52.990;6.878;2022-08-21T11:05:33;30.10;68.50
55492;DHT22;41354;52.990;6.878;2022-08-21T11:08:12;30.10;65.60
55492;DHT22;41354;52.990;6.878;2022-08-21T11:13:29;30.20;63.70
55492;DHT22;41354;52.990;6.878;2022-08-21T11:16:31;30.40;64.60
55492;DHT22;41354;52.990;6.878;2022-08-21T11:19:05;30.60;62.80
55492;DHT22;41354;52.990;6.878;2022-08-21T11:26:53;30.00;62.90
55492;DHT22;41354;52.990;6.878;2022-08-21T11:29:35;30.30;63.60
55492;DHT22;41354;52.990;6.878;2022-08-21T11:34:59;30.50;64.00
55492;DHT22;41354;52.990;6.878;2022-08-21T11:37:36;30.30;60.00
55492;DHT22;41354;52.990;6.878;2022-08-21T11:48:44;30.40;58.10
55492;DHT22;41354;52.990;6.878;2022-08-21T11:51:26;30.00;59.50
55492;DHT22;41354;52.990;6.878;2022-08-21T11:54:34;30.00;57.20
55492;DHT22;41354;52.990;6.878;2022-08-21T11:57:12;29.90;59.10
55492;DHT22;41354;52.990;6.878;2022-08-21T11:59:45;29.90;60.10
55492;DHT22;41354;52.990;6.878;2022-08-21T12:02:18;29.70;58.50
55492;DHT22;41354;52.990;6.878;2022-08-21T12:04:55;29.60;58.50
55492;DHT22;41354;52.990;6.878;2022-08-21T12:07:34;29.50;57.80
55492;DHT22;41354;52.990;6.878;2022-08-21T12:10:02;29.30;60.00
55492;DHT22;41354;52.990;6.878;2022-08-21T12:12:31;29.00;58.70
55492;DHT22;41354;52.990;6.878;2022-08-21T12:17:37;28.20;60.50
55492;DHT22;41354;52.990;6.878;2022-08-21T12:22:41;27.70;64.40
55492;DHT22;41354;52.990;6.878;2022-08-21T12:25:15;27.60;65.60
55492;DHT22;41354;52.990;6.878;2022-08-21T12:27:47;27.50;66.00
55492;DHT22;41354;52.990;6.878;2022-08-21T12:33:06;27.30;64.50
55492;DHT22;41354;52.990;6.878;2022-08-21T12:35:43;27.00;66.10
55492;DHT22;41354;52.990;6.878;2022-08-21T12:38:23;26.70;69.50
55492;DHT22;41354;52.990;6.878;2022-08-21T12:40:56;26.60;71.70
55492;DHT22;41354;52.990;6.878;2022-08-21T12:43:35;26.20;74.70
55492;DHT22;41354;52.990;6.878;2022-08-21T12:46:01;26.00;77.60
55492;DHT22;41354;52.990;6.878;2022-08-21T12:48:35;25.70;80.00
55492;DHT22;41354;52.990;6.878;2022-08-21T12:51:11;25.60;80.50
55492;DHT22;41354;52.990;6.878;2022-08-21T12:53:48;25.40;79.60
55492;DHT22;41354;52.990;6.878;2022-08-21T12:56:16;25.30;82.30
55492;DHT22;41354;52.990;6.878;2022-08-21T12:58:47;25.20;86.30
55492;DHT22;41354;52.990;6.878;2022-08-21T13:01:19;25.20;91.90
55492;DHT22;41354;52.990;6.878;2022-08-21T13:03:46;25.20;93.70
55492;DHT22;41354;52.990;6.878;2022-08-21T13:06:17;25.10;95.00
55492;DHT22;41354;52.990;6.878;2022-08-21T13:08:45;25.10;96.50
55492;DHT22;41354;52.990;6.878;2022-08-21T13:11:15;25.10;96.70
55492;DHT22;41354;52.990;6.878;2022-08-21T13:13:42;25.00;97.30
55492;DHT22;41354;52.990;6.878;2022-08-21T13:16:09;24.80;99.10
55492;DHT22;41354;52.990;6.878;2022-08-21T13:21:17;24.50;99.90
55492;DHT22;41354;52.990;6.878;2022-08-21T13:23:42;24.20;99.90
55492;DHT22;41354;52.990;6.878;2022-08-21T13:26:16;24.10;99.90
55492;DHT22;41354;52.990;6.878;2022-08-21T13:28:43;24.00;99.90
55492;DHT22;41354;52.990;6.878;2022-08-21T13:31:16;23.80;99.90
55492;DHT22;41354;52.990;6.878;2022-08-21T13:33:44;23.60;99.90
55492;DHT22;41354;52.990;6.878;2022-08-21T13:36:24;23.40;99.90
55492;DHT22;41354;52.990;6.878;2022-08-21T13:38:51;23.20;99.90
55492;DHT22;41354;52.990;6.878;2022-08-21T13:41:29;22.90;99.90
55492;DHT22;41354;52.990;6.878;2022-08-21T13:44:02;22.60;99.90
55492;DHT22;41354;52.990;6.878;2022-08-21T13:46:34;22.20;99.90
55492;DHT22;41354;52.990;6.878;2022-08-21T13:49:02;21.70;99.90
55492;DHT22;41354;52.990;6.878;2022-08-21T13:51:29;21.40;99.90
55492;DHT22;41354;52.990;6.878;2022-08-21T13:53:56;21.40;99.90
55492;DHT22;41354;52.990;6.878;2022-08-21T13:56:30;21.50;99.90
55492;DHT22;41354;52.990;6.878;2022-08-21T13:58:57;21.80;99.90
55492;DHT22;41354;52.990;6.878;2022-08-21T14:03:54;22.50;99.90
55492;DHT22;41354;52.990;6.878;2022-08-21T14:06:25;22.80;99.90
55492;DHT22;41354;52.990;6.878;2022-08-21T14:09:08;23.00;99.90
55492;DHT22;41354;52.990;6.878;2022-08-21T14:11:35;23.30;99.90
55492;DHT22;41354;52.990;6.878;2022-08-21T14:14:25;23.60;99.90
55492;DHT22;41354;52.990;6.878;2022-08-21T14:17:01;24.30;99.90
55492;DHT22;41354;52.990;6.878;2022-08-21T14:19:34;25.20;99.90
55492;DHT22;41354;52.990;6.878;2022-08-21T14:22:00;26.10;99.90
55492;DHT22;41354;52.990;6.878;2022-08-21T14:24:29;26.90;99.90
55492;DHT22;41354;52.990;6.878;2022-08-21T14:27:05;27.40;99.90
55492;DHT22;41354;52.990;6.878;2022-08-21T14:29:38;27.70;98.80
55492;DHT22;41354;52.990;6.878;2022-08-21T14:32:14;28.00;99.10
55492;DHT22;41354;52.990;6.878;2022-08-21T14:34:40;28.20;95.30
55492;DHT22;41354;52.990;6.878;2022-08-21T14:37:06;28.50;94.30
55492;DHT22;41354;52.990;6.878;2022-08-21T14:39:31;28.60;91.70
55492;DHT22;41354;52.990;6.878;2022-08-21T14:41:58;29.00;90.30
55492;DHT22;41354;52.990;6.878;2022-08-21T14:44:24;29.20;80.40
55492;DHT22;41354;52.990;6.878;2022-08-21T14:46:50;29.40;80.50
55492;DHT22;41354;52.990;6.878;2022-08-21T14:49:16;29.50;79.60
55492;DHT22;41354;52.990;6.878;2022-08-21T14:51:41;29.50;77.80
55492;DHT22;41354;52.990;6.878;2022-08-21T14:54:07;29.30;80.50
55492;DHT22;41354;52.990;6.878;2022-08-21T14:56:34;28.90;74.80
55492;DHT22;41354;52.990;6.878;2022-08-21T14:59:07;28.60;73.80
55492;DHT22;41354;52.990;6.878;2022-08-21T15:01:37;28.50;73.60
55492;DHT22;41354;52.990;6.878;2022-08-21T15:04:03;28.10;79.00
55492;DHT22;41354;52.990;6.878;2022-08-21T15:06:29;27.50;80.80
55492;DHT22;41354;52.990;6.878;2022-08-21T15:08:54;27.00;87.60
55492;DHT22;41354;52.990;6.878;2022-08-21T15:11:21;26.60;85.60
55492;DHT22;41354;52.990;6.878;2022-08-21T15:13:54;26.40;90.70
55492;DHT22;41354;52.990;6.878;2022-08-21T15:16:20;26.30;94.20
55492;DHT22;41354;52.990;6.878;2022-08-21T15:18:46;26.20;94.90
55492;DHT22;41354;52.990;6.878;2022-08-21T15:21:12;26.30;93.60
55492;DHT22;41354;52.990;6.878;2022-08-21T15:23:37;26.20;91.90
55492;DHT22;41354;52.990;6.878;2022-08-21T15:26:03;26.00;92.40
55492;DHT22;41354;52.990;6.878;2022-08-21T15:28:29;25.80;93.00
55492;DHT22;41354;52.990;6.878;2022-08-21T15:30:55;25.60;92.50
55492;DHT22;41354;52.990;6.878;2022-08-21T15:33:21;25.50;93.60
55492;DHT22;41354;52.990;6.878;2022-08-21T15:35:47;25.30;93.80
55492;DHT22;41354;52.990;6.878;2022-08-21T15:38:14;25.10;94.50
55492;DHT22;41354;52.990;6.878;2022-08-21T15:40:42;25.00;95.70
55492;DHT22;41354;52.990;6.878;2022-08-21T15:43:18;24.90;97.30
55492;DHT22;41354;52.990;6.878;2022-08-21T15:45:44;24.80;99.10
55492;DHT22;41354;52.990;6.878;2022-08-21T15:48:10;24.60;98.90
55492;DHT22;41354;52.990;6.878;2022-08-21T15:50:35;24.60;99.50
55492;DHT22;41354;52.990;6.878;2022-08-21T15:53:01;24.60;99.80
55492;DHT22;41354;52.990;6.878;2022-08-21T15:55:27;24.60;99.90
55492;DHT22;41354;52.990;6.878;2022-08-21T15:57:53;24.60;99.90
55492;DHT22;41354;52.990;6.878;2022-08-21T16:00:21;24.60;99.70
55492;DHT22;41354;52.990;6.878;2022-08-21T16:02:54;24.60;99.90
55492;DHT22;41354;52.990;6.878;2022-08-21T16:05:21;24.50;99.80
55492;DHT22;41354;52.990;6.878;2022-08-21T16:07:48;24.50;99.90
55492;DHT22;41354;52.990;6.878;2022-08-21T16:10:16;24.40;99.90
55492;DHT22;41354;52.990;6.878;2022-08-21T16:12:46;24.40;99.90
55492;DHT22;41354;52.990;6.878;2022-08-21T16:15:13;24.20;99.90
55492;DHT22;41354;52.990;6.878;2022-08-21T16:17:42;23.80;99.90
55492;DHT22;41354;52.990;6.878;2022-08-21T16:20:13;23.60;99.90
55492;DHT22;41354;52.990;6.878;2022-08-21T16:22:39;23.40;99.90
55492;DHT22;41354;52.990;6.878;2022-08-21T16:25:06;23.30;99.90
55492;DHT22;41354;52.990;6.878;2022-08-21T16:27:32;23.20;99.90
55492;DHT22;41354;52.990;6.878;2022-08-21T16:29:59;23.10;99.90
55492;DHT22;41354;52.990;6.878;2022-08-21T16:32:25;23.00;99.90
55492;DHT22;41354;52.990;6.878;2022-08-21T16:34:51;23.00;99.90
55492;DHT22;41354;52.990;6.878;2022-08-21T16:37:18;22.90;99.90
55492;DHT22;41354;52.990;6.878;2022-08-21T16:39:44;22.80;99.90
55492;DHT22;41354;52.990;6.878;2022-08-21T16:42:13;22.70;99.90
55492;DHT22;41354;52.990;6.878;2022-08-21T16:44:41;22.60;99.90
55492;DHT22;41354;52.990;6.878;2022-08-21T16:47:07;22.60;99.90
55492;DHT22;41354;52.990;6.878;2022-08-21T16:49:33;22.60;99.90
55492;DHT22;41354;52.990;6.878;2022-08-21T16:51:58;22.50;99.90
55492;DHT22;41354;52.990;6.878;2022-08-21T16:54:24;22.50;99.90
55492;DHT22;41354;52.990;6.878;2022-08-21T16:56:50;22.50;99.90